sensor_id;sensor_type;location;lat;lon;timestamp;temperature;humidity
18624;DHT22;9441;51.420;7.036;2022-09-09T00:00:59;16.50;99.90
18624;DHT22;9441;51.420;7.036;2022-09-09T00:02:11;16.50;99.90
18624;DHT22;9441;51.420;7.036;2022-09-09T00:03:24;16.60;99.90
18624;DHT22;9441;51.420;7.036;2022-09-09T00:04:28;16.60;99.90
18624;DHT22;9441;51.420;7.036;2022-09-09T00:05:35;16.70;99.90
18624;DHT22;9441;51.420;7.036;2022-09-09T00:06:45;16.70;99.90
18624;DHT22;9441;51.420;7.036;2022-09-09T00:07:50;16.70;99.90
18624;DHT22;9441;51.420;7.036;2022-09-09T00:09:02;16.70;99.90
18624;DHT22;9441;51.420;7.036;2022-09-09T00:10:16;16.70;99.90
18624;DHT22;9441;51.420;7.036;2022-09-09T00:11:25;16.60;99.90
18624;DHT22;9441;51.420;7.036;2022-09-09T00:12:38;16.60;99.90
18624;DHT22;9441;51.420;7.036;2022-09-09T00:13:46;16.60;99.90
18624;DHT22;9441;51.420;7.036;2022-09-09T00:14:53;16.60;99.90
18624;DHT22;9441;51.420;7.036;2022-09-09T00:16:00;16.50;99.90
18624;DHT22;9441;51.420;7.036;2022-09-09T00:17:09;16.50;99.90
18624;DHT22;9441;51.420;7.036;2022-09-09T00:18:20;16.40;99.90
18624;DHT22;9441;51.420;7.036;2022-09-09T00:19:28;16.50;99.90
18624;DHT22;9441;51.420;7.036;2022-09-09T00:20:35;16.60;99.90
18624;DHT22;9441;51.420;7.036;2022-09-09T00:21:46;16.60;99.90
18624;DHT22;9441;51.420;7.036;2022-09-09T00:22:54;16.60;99.90
18624;DHT22;9441;51.420;7.036;2022-09-09T00:23:58;16.70;99.90
18624;DHT22;9441;51.420;7.036;2022-09-09T00:25:09;16.60;99.90
18624;DHT22;9441;51.420;7.036;2022-09-09T00:26:16;16.50;99.90
18624;DHT22;9441;51.420;7.036;2022-09-09T00:27:26;16.60;99.90
18624;DHT22;9441;51.420;7.036;2022-09-09T00:28:33;16.60;99.90
18624;DHT22;9441;51.420;7.036;2022-09-09T00:29:43;16.60;99.90
18624;DHT22;9441;51.420;7.036;2022-09-09T00:30:45;16.30;99.90
18624;DHT22;9441;51.420;7.036;2022-09-09T00:31:50;16.40;99.90
18624;DHT22;9441;51.420;7.036;2022-09-09T00:32:54;16.50;99.90
18624;DHT22;9441;51.420;7.036;2022-09-09T00:34:02;16.50;99.90
18624;DHT22;9441;51.420;7.036;2022-09-09T00:35:14;16.50;99.90
18624;DHT22;9441;51.420;7.036;2022-09-09T00:36:21;16.60;99.90
18624;DHT22;9441;51.420;7.036;2022-09-09T00:37:25;16.50;99.90
18624;DHT22;9441;51.420;7.036;2022-09-09T00:38:32;16.30;99.90
18624;DHT22;9441;51.420;7.036;2022-09-09T00:39:38;16.40;99.90
18624;DHT22;9441;51.420;7.036;2022-09-09T00:40:48;16.50;99.90
18624;DHT22;9441;51.420;7.036;2022-09-09T00:41:58;16.40;99.90
18624;DHT22;9441;51.420;7.036;2022-09-09T00:43:25;16.30;99.90
18624;DHT22;9441;51.420;7.036;2022-09-09T00:44:30;16.10;99.90
18624;DHT22;9441;51.420;7.036;2022-09-09T00:45:51;16.30;99.90
18624;DHT22;9441;51.420;7.036;2022-09-09T00:47:03;16.20;99.90
18624;DHT22;9441;51.420;7.036;2022-09-09T00:48:10;16.20;99.90
18624;DHT22;9441;51.420;7.036;2022-09-09T00:49:19;16.30;99.90
18624;DHT22;9441;51.420;7.036;2022-09-09T00:50:43;16.30;99.90
18624;DHT22;9441;51.420;7.036;2022-09-09T00:51:52;16.30;99.90
18624;DHT22;9441;51.420;7.036;2022-09-09T00:53:02;16.30;99.90
18624;DHT22;9441;51.420;7.036;2022-09-09T00:54:27;16.40;99.90
18624;DHT22;9441;51.420;7.036;2022-09-09T00:55:39;16.30;99.90
18624;DHT22;9441;51.420;7.036;2022-09-09T00:56:47;16.30;99.90
18624;DHT22;9441;51.420;7.036;2022-09-09T00:57:52;16.20;99.90
18624;DHT22;9441;51.420;7.036;2022-09-09T00:58:57;16.10;99.90
18624;DHT22;9441;51.420;7.036;2022-09-09T01:00:18;16.10;99.90
18624;DHT22;9441;51.420;7.036;2022-09-09T01:01:19;16.10;99.90
18624;DHT22;9441;51.420;7.036;2022-09-09T01:02:28;16.20;99.90
18624;DHT22;9441;51.420;7.036;2022-09-09T01:03:34;16.20;99.90
18624;DHT22;9441;51.420;7.036;2022-09-09T01:04:37;16.30;99.90
18624;DHT22;9441;51.420;7.036;2022-09-09T01:05:42;16.30;99.90
18624;DHT22;9441;51.420;7.036;2022-09-09T01:06:51;16.40;99.90
18624;DHT22;9441;51.420;7.036;2022-09-09T01:07:58;16.40;99.90
18624;DHT22;9441;51.420;7.036;2022-09-09T01:09:15;16.40;99.90
18624;DHT22;9441;51.420;7.036;2022-09-09T01:10:26;16.30;99.90
18624;DHT22;9441;51.420;7.036;2022-09-09T01:11:37;16.40;99.90
18624;DHT22;9441;51.420;7.036;2022-09-09T01:12:43;16.40;99.90
18624;DHT22;9441;51.420;7.036;2022-09-09T01:13:56;16.40;99.90
18624;DHT22;9441;51.420;7.036;2022-09-09T01:15:10;16.40;99.90
18624;DHT22;9441;51.420;7.036;2022-09-09T01:16:18;16.30;99.90
18624;DHT22;9441;51.420;7.036;2022-09-09T01:17:23;16.40;99.90
18624;DHT22;9441;51.420;7.036;2022-09-09T01:18:37;16.40;99.90
18624;DHT22;9441;51.420;7.036;2022-09-09T01:19:53;16.40;99.90
18624;DHT22;9441;51.420;7.036;2022-09-09T01:21:04;16.40;99.90
18624;DHT22;9441;51.420;7.036;2022-09-09T01:22:16;16.40;99.90
18624;DHT22;9441;51.420;7.036;2022-09-09T01:23:34;16.30;99.90
18624;DHT22;9441;51.420;7.036;2022-09-09T01:25:18;16.30;99.90
18624;DHT22;9441;51.420;7.036;2022-09-09T01:26:33;16.30;99.90
18624;DHT22;9441;51.420;7.036;2022-09-09T01:27:38;16.40;99.90
18624;DHT22;9441;51.420;7.036;2022-09-09T01:28:43;16.40;99.90
18624;DHT22;9441;51.420;7.036;2022-09-09T01:29:47;16.40;99.90
18624;DHT22;9441;51.420;7.036;2022-09-09T01:30:50;16.50;99.90
18624;DHT22;9441;51.420;7.036;2022-09-09T01:31:56;16.40;99.90
18624;DHT22;9441;51.420;7.036;2022-09-09T01:32:58;16.40;99.90
18624;DHT22;9441;51.420;7.036;2022-09-09T01:34:01;16.40;99.90
18624;DHT22;9441;51.420;7.036;2022-09-09T01:35:07;16.40;99.90
18624;DHT22;9441;51.420;7.036;2022-09-09T01:36:13;16.40;99.90
18624;DHT22;9441;51.420;7.036;2022-09-09T01:37:23;16.40;99.90
18624;DHT22;9441;51.420;7.036;2022-09-09T01:38:25;16.50;99.90
18624;DHT22;9441;51.420;7.036;2022-09-09T01:39:28;16.50;99.90
18624;DHT22;9441;51.420;7.036;2022-09-09T01:40:37;16.50;99.90
18624;DHT22;9441;51.420;7.036;2022-09-09T01:41:40;16.50;99.90
18624;DHT22;9441;51.420;7.036;2022-09-09T01:42:45;16.50;99.90
18624;DHT22;9441;51.420;7.036;2022-09-09T01:43:47;16.50;99.90
18624;DHT22;9441;51.420;7.036;2022-09-09T01:44:49;16.30;99.90
18624;DHT22;9441;51.420;7.036;2022-09-09T01:45:53;16.30;99.90
18624;DHT22;9441;51.420;7.036;2022-09-09T01:46:56;16.30;99.90
18624;DHT22;9441;51.420;7.036;2022-09-09T01:47:59;16.40;99.90
18624;DHT22;9441;51.420;7.036;2022-09-09T01:49:18;16.50;99.90
18624;DHT22;9441;51.420;7.036;2022-09-09T01:50:21;16.50;99.90
18624;DHT22;9441;51.420;7.036;2022-09-09T01:51:23;16.50;99.90
18624;DHT22;9441;51.420;7.036;2022-09-09T01:52:25;16.50;99.90
18624;DHT22;9441;51.420;7.036;2022-09-09T01:53:27;16.50;99.90
18624;DHT22;9441;51.420;7.036;2022-09-09T01:54:31;16.50;99.90
18624;DHT22;9441;51.420;7.036;2022-09-09T01:55:38;16.50;99.90
18624;DHT22;9441;51.420;7.036;2022-09-09T01:56:50;16.50;99.90
18624;DHT22;9441;51.420;7.036;2022-09-09T01:57:59;16.40;99.90
18624;DHT22;9441;51.420;7.036;2022-09-09T01:59:18;16.30;99.90
18624;DHT22;9441;51.420;7.036;2022-09-09T02:00:26;16.30;99.90
18624;DHT22;9441;51.420;7.036;2022-09-09T02:01:41;16.30;99.90
18624;DHT22;9441;51.420;7.036;2022-09-09T02:02:52;16.30;99.90
18624;DHT22;9441;51.420;7.036;2022-09-09T02:04:03;16.40;99.90
18624;DHT22;9441;51.420;7.036;2022-09-09T02:05:18;16.30;99.90
18624;DHT22;9441;51.420;7.036;2022-09-09T02:06:27;16.10;99.90
18624;DHT22;9441;51.420;7.036;2022-09-09T02:07:39;16.10;99.90
18624;DHT22;9441;51.420;7.036;2022-09-09T02:08:54;16.20;99.90
18624;DHT22;9441;51.420;7.036;2022-09-09T02:10:00;16.30;99.90
18624;DHT22;9441;51.420;7.036;2022-09-09T02:11:06;16.30;99.90
18624;DHT22;9441;51.420;7.036;2022-09-09T02:12:22;16.30;99.90
18624;DHT22;9441;51.420;7.036;2022-09-09T02:13:29;16.20;99.90
18624;DHT22;9441;51.420;7.036;2022-09-09T02:14:36;16.20;99.90
18624;DHT22;9441;51.420;7.036;2022-09-09T02:15:45;16.20;99.90
18624;DHT22;9441;51.420;7.036;2022-09-09T02:16:50;16.20;99.90
18624;DHT22;9441;51.420;7.036;2022-09-09T02:17:57;16.20;99.90
18624;DHT22;9441;51.420;7.036;2022-09-09T02:19:02;16.10;99.90
18624;DHT22;9441;51.420;7.036;2022-09-09T02:20:18;16.10;99.90
18624;DHT22;9441;51.420;7.036;2022-09-09T02:21:24;16.00;99.90
18624;DHT22;9441;51.420;7.036;2022-09-09T02:22:30;16.00;99.90
18624;DHT22;9441;51.420;7.036;2022-09-09T02:23:34;16.10;99.90
18624;DHT22;9441;51.420;7.036;2022-09-09T02:24:39;16.20;99.90
18624;DHT22;9441;51.420;7.036;2022-09-09T02:26:02;16.20;99.90
18624;DHT22;9441;51.420;7.036;2022-09-09T02:27:06;16.20;99.90
18624;DHT22;9441;51.420;7.036;2022-09-09T02:28:12;16.20;99.90
18624;DHT22;9441;51.420;7.036;2022-09-09T02:29:18;16.20;99.90
18624;DHT22;9441;51.420;7.036;2022-09-09T02:30:21;16.30;99.90
18624;DHT22;9441;51.420;7.036;2022-09-09T02:31:27;16.30;99.90
18624;DHT22;9441;51.420;7.036;2022-09-09T02:32:35;16.40;99.90
18624;DHT22;9441;51.420;7.036;2022-09-09T02:33:44;16.30;99.90
18624;DHT22;9441;51.420;7.036;2022-09-09T02:34:49;16.30;99.90
18624;DHT22;9441;51.420;7.036;2022-09-09T02:35:53;16.30;99.90
18624;DHT22;9441;51.420;7.036;2022-09-09T02:36:59;16.20;99.90
18624;DHT22;9441;51.420;7.036;2022-09-09T02:38:05;16.20;99.90
18624;DHT22;9441;51.420;7.036;2022-09-09T02:39:10;16.10;99.90
18624;DHT22;9441;51.420;7.036;2022-09-09T02:40:13;16.20;99.90
18624;DHT22;9441;51.420;7.036;2022-09-09T02:41:21;16.30;99.90
18624;DHT22;9441;51.420;7.036;2022-09-09T02:42:26;16.40;99.90
18624;DHT22;9441;51.420;7.036;2022-09-09T02:43:33;16.20;99.90
18624;DHT22;9441;51.420;7.036;2022-09-09T02:44:36;16.10;99.90
18624;DHT22;9441;51.420;7.036;2022-09-09T02:45:44;16.10;99.90
18624;DHT22;9441;51.420;7.036;2022-09-09T02:47:11;16.10;99.90
18624;DHT22;9441;51.420;7.036;2022-09-09T02:48:23;16.30;99.90
18624;DHT22;9441;51.420;7.036;2022-09-09T02:49:37;16.30;99.90
18624;DHT22;9441;51.420;7.036;2022-09-09T02:50:50;16.30;99.90
18624;DHT22;9441;51.420;7.036;2022-09-09T02:52:02;16.30;99.90
18624;DHT22;9441;51.420;7.036;2022-09-09T02:53:09;16.40;99.90
18624;DHT22;9441;51.420;7.036;2022-09-09T02:54:22;16.50;99.90
18624;DHT22;9441;51.420;7.036;2022-09-09T02:55:38;16.50;99.90
18624;DHT22;9441;51.420;7.036;2022-09-09T02:56:49;16.50;99.90
18624;DHT22;9441;51.420;7.036;2022-09-09T02:57:53;16.40;99.90
18624;DHT22;9441;51.420;7.036;2022-09-09T02:58:58;16.50;99.90
18624;DHT22;9441;51.420;7.036;2022-09-09T03:00:01;16.40;99.90
18624;DHT22;9441;51.420;7.036;2022-09-09T03:01:05;16.30;99.90
18624;DHT22;9441;51.420;7.036;2022-09-09T03:02:09;16.30;99.90
18624;DHT22;9441;51.420;7.036;2022-09-09T03:03:12;16.40;99.90
18624;DHT22;9441;51.420;7.036;2022-09-09T03:04:14;16.50;99.90
18624;DHT22;9441;51.420;7.036;2022-09-09T03:05:15;16.50;99.90
18624;DHT22;9441;51.420;7.036;2022-09-09T03:06:18;16.50;99.90
18624;DHT22;9441;51.420;7.036;2022-09-09T03:07:23;16.50;99.90
18624;DHT22;9441;51.420;7.036;2022-09-09T03:08:27;16.40;99.90
18624;DHT22;9441;51.420;7.036;2022-09-09T03:09:28;16.50;99.90
18624;DHT22;9441;51.420;7.036;2022-09-09T03:10:31;16.50;99.90
18624;DHT22;9441;51.420;7.036;2022-09-09T03:11:32;16.50;99.90
18624;DHT22;9441;51.420;7.036;2022-09-09T03:12:34;16.50;99.90
18624;DHT22;9441;51.420;7.036;2022-09-09T03:13:36;16.60;99.90
18624;DHT22;9441;51.420;7.036;2022-09-09T03:14:40;16.40;99.90
18624;DHT22;9441;51.420;7.036;2022-09-09T03:15:41;16.50;99.90
18624;DHT22;9441;51.420;7.036;2022-09-09T03:16:48;16.50;99.90
18624;DHT22;9441;51.420;7.036;2022-09-09T03:17:49;16.50;99.90
18624;DHT22;9441;51.420;7.036;2022-09-09T03:18:52;16.50;99.90
18624;DHT22;9441;51.420;7.036;2022-09-09T03:19:53;16.60;99.90
18624;DHT22;9441;51.420;7.036;2022-09-09T03:20:57;16.50;99.90
18624;DHT22;9441;51.420;7.036;2022-09-09T03:22:00;16.40;99.90
18624;DHT22;9441;51.420;7.036;2022-09-09T03:23:03;16.50;99.90
18624;DHT22;9441;51.420;7.036;2022-09-09T03:24:05;16.40;99.90
18624;DHT22;9441;51.420;7.036;2022-09-09T03:25:07;16.40;99.90
18624;DHT22;9441;51.420;7.036;2022-09-09T03:26:10;16.50;99.90
18624;DHT22;9441;51.420;7.036;2022-09-09T03:27:17;16.50;99.90
18624;DHT22;9441;51.420;7.036;2022-09-09T03:28:19;16.60;99.90
18624;DHT22;9441;51.420;7.036;2022-09-09T03:29:23;16.50;99.90
18624;DHT22;9441;51.420;7.036;2022-09-09T03:30:29;16.40;99.90
18624;DHT22;9441;51.420;7.036;2022-09-09T03:31:31;16.50;99.90
18624;DHT22;9441;51.420;7.036;2022-09-09T03:32:33;16.50;99.90
18624;DHT22;9441;51.420;7.036;2022-09-09T03:33:35;16.50;99.90
18624;DHT22;9441;51.420;7.036;2022-09-09T03:34:38;16.40;99.90
18624;DHT22;9441;51.420;7.036;2022-09-09T03:35:45;16.50;99.90
18624;DHT22;9441;51.420;7.036;2022-09-09T03:36:49;16.50;99.90
18624;DHT22;9441;51.420;7.036;2022-09-09T03:37:52;16.40;99.90
18624;DHT22;9441;51.420;7.036;2022-09-09T03:38:53;16.50;99.90
18624;DHT22;9441;51.420;7.036;2022-09-09T03:39:57;16.40;99.90
18624;DHT22;9441;51.420;7.036;2022-09-09T03:40:59;16.40;99.90
18624;DHT22;9441;51.420;7.036;2022-09-09T03:42:02;16.40;99.90
18624;DHT22;9441;51.420;7.036;2022-09-09T03:43:04;16.40;99.90
18624;DHT22;9441;51.420;7.036;2022-09-09T03:44:08;16.40;99.90
18624;DHT22;9441;51.420;7.036;2022-09-09T03:45:13;16.50;99.90
18624;DHT22;9441;51.420;7.036;2022-09-09T03:46:17;16.50;99.90
18624;DHT22;9441;51.420;7.036;2022-09-09T03:47:19;16.60;99.90
18624;DHT22;9441;51.420;7.036;2022-09-09T03:48:23;16.50;99.90
18624;DHT22;9441;51.420;7.036;2022-09-09T03:49:24;16.40;99.90
18624;DHT22;9441;51.420;7.036;2022-09-09T03:50:26;16.40;99.90
18624;DHT22;9441;51.420;7.036;2022-09-09T03:51:28;16.40;99.90
18624;DHT22;9441;51.420;7.036;2022-09-09T03:52:30;16.50;99.90
18624;DHT22;9441;51.420;7.036;2022-09-09T03:53:32;16.40;99.90
18624;DHT22;9441;51.420;7.036;2022-09-09T03:54:34;16.40;99.90
18624;DHT22;9441;51.420;7.036;2022-09-09T03:55:36;16.50;99.90
18624;DHT22;9441;51.420;7.036;2022-09-09T03:56:38;16.50;99.90
18624;DHT22;9441;51.420;7.036;2022-09-09T03:57:41;16.40;99.90
18624;DHT22;9441;51.420;7.036;2022-09-09T03:58:44;16.50;99.90
18624;DHT22;9441;51.420;7.036;2022-09-09T03:59:46;16.50;99.90
18624;DHT22;9441;51.420;7.036;2022-09-09T04:00:53;16.50;99.90
18624;DHT22;9441;51.420;7.036;2022-09-09T04:01:56;16.60;99.90
18624;DHT22;9441;51.420;7.036;2022-09-09T04:02:59;16.60;99.90
18624;DHT22;9441;51.420;7.036;2022-09-09T04:04:01;16.60;99.90
18624;DHT22;9441;51.420;7.036;2022-09-09T04:05:04;16.70;99.90
18624;DHT22;9441;51.420;7.036;2022-09-09T04:06:08;16.70;99.90
18624;DHT22;9441;51.420;7.036;2022-09-09T04:07:12;16.70;99.90
18624;DHT22;9441;51.420;7.036;2022-09-09T04:08:14;16.70;99.90
18624;DHT22;9441;51.420;7.036;2022-09-09T04:09:16;16.70;99.90
18624;DHT22;9441;51.420;7.036;2022-09-09T04:10:17;16.70;99.90
18624;DHT22;9441;51.420;7.036;2022-09-09T04:11:20;16.60;99.90
18624;DHT22;9441;51.420;7.036;2022-09-09T04:12:23;16.50;99.90
18624;DHT22;9441;51.420;7.036;2022-09-09T04:13:26;16.70;99.90
18624;DHT22;9441;51.420;7.036;2022-09-09T04:14:27;16.60;99.90
18624;DHT22;9441;51.420;7.036;2022-09-09T04:15:30;16.50;99.90
18624;DHT22;9441;51.420;7.036;2022-09-09T04:16:31;16.50;99.90
18624;DHT22;9441;51.420;7.036;2022-09-09T04:17:35;16.50;99.90
18624;DHT22;9441;51.420;7.036;2022-09-09T04:18:37;16.50;99.90
18624;DHT22;9441;51.420;7.036;2022-09-09T04:19:39;16.50;99.90
18624;DHT22;9441;51.420;7.036;2022-09-09T04:20:41;16.60;99.90
18624;DHT22;9441;51.420;7.036;2022-09-09T04:21:44;16.60;99.90
18624;DHT22;9441;51.420;7.036;2022-09-09T04:22:45;16.40;99.90
18624;DHT22;9441;51.420;7.036;2022-09-09T04:23:48;16.40;99.90
18624;DHT22;9441;51.420;7.036;2022-09-09T04:24:49;16.30;99.90
18624;DHT22;9441;51.420;7.036;2022-09-09T04:25:55;16.30;99.90
18624;DHT22;9441;51.420;7.036;2022-09-09T04:26:56;16.30;99.90
18624;DHT22;9441;51.420;7.036;2022-09-09T04:27:58;16.30;99.90
18624;DHT22;9441;51.420;7.036;2022-09-09T04:28:59;16.30;99.90
18624;DHT22;9441;51.420;7.036;2022-09-09T04:30:02;16.30;99.90
18624;DHT22;9441;51.420;7.036;2022-09-09T04:31:07;16.20;99.90
18624;DHT22;9441;51.420;7.036;2022-09-09T04:32:10;16.20;99.90
18624;DHT22;9441;51.420;7.036;2022-09-09T04:33:14;16.20;99.90
18624;DHT22;9441;51.420;7.036;2022-09-09T04:34:17;16.30;99.90
18624;DHT22;9441;51.420;7.036;2022-09-09T04:35:19;16.20;99.90
18624;DHT22;9441;51.420;7.036;2022-09-09T04:36:22;16.20;99.90
18624;DHT22;9441;51.420;7.036;2022-09-09T04:37:25;16.20;99.90
18624;DHT22;9441;51.420;7.036;2022-09-09T04:38:27;16.20;99.90
18624;DHT22;9441;51.420;7.036;2022-09-09T04:39:29;16.30;99.90
18624;DHT22;9441;51.420;7.036;2022-09-09T04:40:33;16.30;99.90
18624;DHT22;9441;51.420;7.036;2022-09-09T04:41:35;16.20;99.90
18624;DHT22;9441;51.420;7.036;2022-09-09T04:42:38;16.20;99.90
18624;DHT22;9441;51.420;7.036;2022-09-09T04:43:40;16.40;99.90
18624;DHT22;9441;51.420;7.036;2022-09-09T04:44:43;16.50;99.90
18624;DHT22;9441;51.420;7.036;2022-09-09T04:45:47;16.70;99.90
18624;DHT22;9441;51.420;7.036;2022-09-09T04:46:49;16.80;99.90
18624;DHT22;9441;51.420;7.036;2022-09-09T04:47:51;16.70;99.90
18624;DHT22;9441;51.420;7.036;2022-09-09T04:48:54;16.70;99.90
18624;DHT22;9441;51.420;7.036;2022-09-09T04:50:02;16.70;99.90
18624;DHT22;9441;51.420;7.036;2022-09-09T04:51:05;16.70;99.90
18624;DHT22;9441;51.420;7.036;2022-09-09T04:52:09;16.70;99.90
18624;DHT22;9441;51.420;7.036;2022-09-09T04:53:11;16.70;99.90
18624;DHT22;9441;51.420;7.036;2022-09-09T04:54:13;16.60;99.90
18624;DHT22;9441;51.420;7.036;2022-09-09T04:55:17;16.50;99.90
18624;DHT22;9441;51.420;7.036;2022-09-09T04:56:19;16.50;99.90
18624;DHT22;9441;51.420;7.036;2022-09-09T04:57:27;16.50;99.90
18624;DHT22;9441;51.420;7.036;2022-09-09T04:58:28;16.50;99.90
18624;DHT22;9441;51.420;7.036;2022-09-09T04:59:30;16.70;99.90
18624;DHT22;9441;51.420;7.036;2022-09-09T05:00:33;16.60;99.90
18624;DHT22;9441;51.420;7.036;2022-09-09T05:01:37;16.60;99.90
18624;DHT22;9441;51.420;7.036;2022-09-09T05:02:40;16.70;99.90
18624;DHT22;9441;51.420;7.036;2022-09-09T05:03:43;16.50;99.90
18624;DHT22;9441;51.420;7.036;2022-09-09T05:04:48;16.50;99.90
18624;DHT22;9441;51.420;7.036;2022-09-09T05:05:51;16.40;99.90
18624;DHT22;9441;51.420;7.036;2022-09-09T05:06:52;16.40;99.90
18624;DHT22;9441;51.420;7.036;2022-09-09T05:07:54;16.40;99.90
18624;DHT22;9441;51.420;7.036;2022-09-09T05:08:55;16.40;99.90
18624;DHT22;9441;51.420;7.036;2022-09-09T05:10:00;16.50;99.90
18624;DHT22;9441;51.420;7.036;2022-09-09T05:11:14;16.50;99.90
18624;DHT22;9441;51.420;7.036;2022-09-09T05:12:16;16.60;99.90
18624;DHT22;9441;51.420;7.036;2022-09-09T05:13:26;16.50;99.90
18624;DHT22;9441;51.420;7.036;2022-09-09T05:14:27;16.50;99.90
18624;DHT22;9441;51.420;7.036;2022-09-09T05:15:30;16.50;99.90
18624;DHT22;9441;51.420;7.036;2022-09-09T05:16:31;16.50;99.90
18624;DHT22;9441;51.420;7.036;2022-09-09T05:17:34;16.60;99.90
18624;DHT22;9441;51.420;7.036;2022-09-09T05:18:35;16.60;99.90
18624;DHT22;9441;51.420;7.036;2022-09-09T05:19:37;16.60;99.90
18624;DHT22;9441;51.420;7.036;2022-09-09T05:20:40;16.60;99.90
18624;DHT22;9441;51.420;7.036;2022-09-09T05:21:43;16.70;99.90
18624;DHT22;9441;51.420;7.036;2022-09-09T05:22:44;16.70;99.90
18624;DHT22;9441;51.420;7.036;2022-09-09T05:23:46;16.80;99.90
18624;DHT22;9441;51.420;7.036;2022-09-09T05:24:48;16.80;99.90
18624;DHT22;9441;51.420;7.036;2022-09-09T05:25:58;16.80;99.90
18624;DHT22;9441;51.420;7.036;2022-09-09T05:27:00;16.80;99.90
18624;DHT22;9441;51.420;7.036;2022-09-09T05:28:03;16.70;99.90
18624;DHT22;9441;51.420;7.036;2022-09-09T05:29:04;16.70;99.90
18624;DHT22;9441;51.420;7.036;2022-09-09T05:30:08;16.70;99.90
18624;DHT22;9441;51.420;7.036;2022-09-09T05:31:10;16.70;99.90
18624;DHT22;9441;51.420;7.036;2022-09-09T05:32:13;16.70;99.90
18624;DHT22;9441;51.420;7.036;2022-09-09T05:33:16;16.70;99.90
18624;DHT22;9441;51.420;7.036;2022-09-09T05:34:18;16.70;99.90
18624;DHT22;9441;51.420;7.036;2022-09-09T05:35:19;16.70;99.90
18624;DHT22;9441;51.420;7.036;2022-09-09T05:36:23;16.70;99.90
18624;DHT22;9441;51.420;7.036;2022-09-09T05:37:28;16.60;99.90
18624;DHT22;9441;51.420;7.036;2022-09-09T05:38:33;16.70;99.90
18624;DHT22;9441;51.420;7.036;2022-09-09T05:39:35;16.70;99.90
18624;DHT22;9441;51.420;7.036;2022-09-09T05:40:38;16.60;99.90
18624;DHT22;9441;51.420;7.036;2022-09-09T05:41:39;16.60;99.90
18624;DHT22;9441;51.420;7.036;2022-09-09T05:42:41;16.60;99.90
18624;DHT22;9441;51.420;7.036;2022-09-09T05:43:43;16.50;99.90
18624;DHT22;9441;51.420;7.036;2022-09-09T05:44:47;16.60;99.90
18624;DHT22;9441;51.420;7.036;2022-09-09T05:45:48;16.60;99.90
18624;DHT22;9441;51.420;7.036;2022-09-09T05:46:51;16.70;99.90
18624;DHT22;9441;51.420;7.036;2022-09-09T05:47:52;16.80;99.90
18624;DHT22;9441;51.420;7.036;2022-09-09T05:48:55;16.70;99.90
18624;DHT22;9441;51.420;7.036;2022-09-09T05:50:02;16.60;99.90
18624;DHT22;9441;51.420;7.036;2022-09-09T05:51:07;16.70;99.90
18624;DHT22;9441;51.420;7.036;2022-09-09T05:52:10;16.60;99.90
18624;DHT22;9441;51.420;7.036;2022-09-09T05:53:13;16.60;99.90
18624;DHT22;9441;51.420;7.036;2022-09-09T05:54:15;16.60;99.90
18624;DHT22;9441;51.420;7.036;2022-09-09T05:55:20;16.60;99.90
18624;DHT22;9441;51.420;7.036;2022-09-09T05:56:23;16.70;99.90
18624;DHT22;9441;51.420;7.036;2022-09-09T05:57:26;16.80;99.90
18624;DHT22;9441;51.420;7.036;2022-09-09T05:58:27;16.80;99.90
18624;DHT22;9441;51.420;7.036;2022-09-09T05:59:29;16.80;99.90
18624;DHT22;9441;51.420;7.036;2022-09-09T06:00:33;16.70;99.90
18624;DHT22;9441;51.420;7.036;2022-09-09T06:01:36;16.70;99.90
18624;DHT22;9441;51.420;7.036;2022-09-09T06:02:41;16.70;99.90
18624;DHT22;9441;51.420;7.036;2022-09-09T06:03:45;16.70;99.90
18624;DHT22;9441;51.420;7.036;2022-09-09T06:04:48;16.70;99.90
18624;DHT22;9441;51.420;7.036;2022-09-09T06:05:57;16.60;99.90
18624;DHT22;9441;51.420;7.036;2022-09-09T06:06:59;16.70;99.90
18624;DHT22;9441;51.420;7.036;2022-09-09T06:08:04;16.70;99.90
18624;DHT22;9441;51.420;7.036;2022-09-09T06:09:07;16.70;99.90
18624;DHT22;9441;51.420;7.036;2022-09-09T06:10:11;16.70;99.90
18624;DHT22;9441;51.420;7.036;2022-09-09T06:11:15;16.70;99.90
18624;DHT22;9441;51.420;7.036;2022-09-09T06:12:18;16.80;99.90
18624;DHT22;9441;51.420;7.036;2022-09-09T06:13:20;16.80;99.90
18624;DHT22;9441;51.420;7.036;2022-09-09T06:14:22;16.80;99.90
18624;DHT22;9441;51.420;7.036;2022-09-09T06:15:24;16.80;99.90
18624;DHT22;9441;51.420;7.036;2022-09-09T06:16:29;16.70;99.90
18624;DHT22;9441;51.420;7.036;2022-09-09T06:17:30;16.80;99.90
18624;DHT22;9441;51.420;7.036;2022-09-09T06:18:32;16.80;99.90
18624;DHT22;9441;51.420;7.036;2022-09-09T06:19:33;16.80;99.90
18624;DHT22;9441;51.420;7.036;2022-09-09T06:20:36;16.80;99.90
18624;DHT22;9441;51.420;7.036;2022-09-09T06:21:37;16.90;99.90
18624;DHT22;9441;51.420;7.036;2022-09-09T06:22:42;16.90;99.90
18624;DHT22;9441;51.420;7.036;2022-09-09T06:23:45;16.90;99.90
18624;DHT22;9441;51.420;7.036;2022-09-09T06:24:48;17.00;99.90
18624;DHT22;9441;51.420;7.036;2022-09-09T06:25:49;17.00;99.90
18624;DHT22;9441;51.420;7.036;2022-09-09T06:26:51;17.00;99.90
18624;DHT22;9441;51.420;7.036;2022-09-09T06:27:57;17.10;99.90
18624;DHT22;9441;51.420;7.036;2022-09-09T06:28:59;17.10;99.90
18624;DHT22;9441;51.420;7.036;2022-09-09T06:30:04;17.10;99.90
18624;DHT22;9441;51.420;7.036;2022-09-09T06:31:07;17.20;99.90
18624;DHT22;9441;51.420;7.036;2022-09-09T06:32:10;17.20;99.90
18624;DHT22;9441;51.420;7.036;2022-09-09T06:33:12;17.10;99.90
18624;DHT22;9441;51.420;7.036;2022-09-09T06:34:13;17.20;99.90
18624;DHT22;9441;51.420;7.036;2022-09-09T06:35:19;17.20;99.90
18624;DHT22;9441;51.420;7.036;2022-09-09T06:36:22;17.10;99.90
18624;DHT22;9441;51.420;7.036;2022-09-09T06:37:25;17.20;99.90
18624;DHT22;9441;51.420;7.036;2022-09-09T06:38:27;17.30;99.90
18624;DHT22;9441;51.420;7.036;2022-09-09T06:39:30;17.20;99.90
18624;DHT22;9441;51.420;7.036;2022-09-09T06:40:32;17.10;99.90
18624;DHT22;9441;51.420;7.036;2022-09-09T06:41:33;17.10;99.90
18624;DHT22;9441;51.420;7.036;2022-09-09T06:42:37;17.20;99.90
18624;DHT22;9441;51.420;7.036;2022-09-09T06:43:55;17.10;99.90
18624;DHT22;9441;51.420;7.036;2022-09-09T06:45:05;17.20;99.90
18624;DHT22;9441;51.420;7.036;2022-09-09T06:46:14;17.30;99.90
18624;DHT22;9441;51.420;7.036;2022-09-09T06:47:16;17.20;99.90
18624;DHT22;9441;51.420;7.036;2022-09-09T06:48:17;17.20;99.90
18624;DHT22;9441;51.420;7.036;2022-09-09T06:49:20;17.20;99.90
18624;DHT22;9441;51.420;7.036;2022-09-09T06:50:22;17.10;99.90
18624;DHT22;9441;51.420;7.036;2022-09-09T06:51:25;17.20;99.90
18624;DHT22;9441;51.420;7.036;2022-09-09T06:52:28;17.20;99.90
18624;DHT22;9441;51.420;7.036;2022-09-09T06:53:31;17.20;99.90
18624;DHT22;9441;51.420;7.036;2022-09-09T06:54:36;17.20;99.90
18624;DHT22;9441;51.420;7.036;2022-09-09T06:55:39;17.10;99.90
18624;DHT22;9441;51.420;7.036;2022-09-09T06:56:43;17.10;99.90
18624;DHT22;9441;51.420;7.036;2022-09-09T06:57:52;17.00;99.90
18624;DHT22;9441;51.420;7.036;2022-09-09T06:58:58;17.10;99.90
18624;DHT22;9441;51.420;7.036;2022-09-09T07:00:04;17.20;99.90